logo
Rechercher aéroport 
image banner adimage banner adimage banner ad
image banner ad

L11 - Pebbly Beach

Situé à Avalon, United States

ICAO - L11, IATA - AVX

Données fournies par Airmate  

Information générale

Coordonnées: N33°20'18" W118°18'43"
Élévation : 6 feet MSL.
Variation magnétique : 12° East
Voir autres Aéroports à California

Données opérationnelles

Special qualification required
Heure actuelle UTC:
Heure actuelle locale:
Météo à : KAVX - Catalina ( 12 km )
METAR: KAVX 011700Z AUTO VRB04KT 4SM BR OVC002 14/13 A2993 RMK AO2 T01440128 $
Voir NOTAMs / SUP AIP / TFR affectant cet aéroport [VIEW]
Fréquences de communication: [VIEW]

Pistes:

Identifiant RWYQFULongueur (ft)Largeur (ft)SurfaceLDA (ft)
ALL150004000WATER
WAY150004000WATER

Coordonnées de l'aéroport

Adresse: Avalon United States

Vue satellite de L11